Time;durP1;ratioP1;P1;durP2;ratioP2;P2;SDS_P1;SDS_P2;PMS_P1;PMS_P2;Temp;Humidity;BMP_temperature;BMP_pressure;BME280_temperature;BME280_humidity;BME280_pressure;Samples;Min_cycle;Max_cycle;Signal;HPM_P1;HPM_P2
2024/01/11 00:03:50;;;;;;;300.20;117.10;;;;;;;-9.37;78.87;100059.95;226197;1273;22576;-69
2024/01/11 00:08:52;;;;;;;288.80;115.40;;;;;;;-9.49;78.69;100048.94;226252;1274;22589;-70
2024/01/11 00:13:54;;;;;;;283.30;110.60;;;;;;;-9.57;78.81;100037.17;226272;1274;22583;-71
2024/01/11 00:18:56;;;;;;;268.00;107.00;;;;;;;-9.59;78.99;100037.73;226303;1274;22683;-70
2024/01/11 00:23:59;;;;;;;265.80;102.90;;;;;;;-9.57;79.16;100035.14;226205;1273;22628;-70
2024/01/11 00:29:01;;;;;;;284.10;111.00;;;;;;;-9.59;79.08;100024.94;226234;1256;22586;-71
2024/01/11 00:34:03;;;;;;;240.70;93.80;;;;;;;-9.63;79.17;100026.20;226255;1267;22654;-71
2024/01/11 00:39:05;;;;;;;293.80;112.90;;;;;;;-9.61;79.39;100029.74;226241;1274;22602;-72
2024/01/11 00:44:07;;;;;;;337.90;131.50;;;;;;;-9.60;79.38;100036.37;226205;1273;22579;-70
2024/01/11 00:49:10;;;;;;;301.30;119.40;;;;;;;-9.67;79.16;100023.57;226224;1273;25469;-71
2024/01/11 00:54:12;;;;;;;312.20;123.90;;;;;;;-9.78;78.86;100015.45;226246;1272;23172;-72
2024/01/11 00:59:14;;;;;;;248.00;96.00;;;;;;;-9.87;78.79;100011.55;226224;1274;21801;-70
2024/01/11 01:04:16;;;;;;;239.60;94.50;;;;;;;-9.93;78.97;100003.15;226234;1273;22634;-71
2024/01/11 01:09:18;;;;;;;265.60;108.70;;;;;;;-9.93;79.40;100001.61;226282;1273;25290;-70
2024/01/11 01:14:20;;;;;;;289.20;105.80;;;;;;;-9.95;79.36;100004.73;226126;1272;22405;-71
2024/01/11 01:19:22;;;;;;;258.30;96.30;;;;;;;-9.91;79.73;100014.17;226273;1274;23600;-71
2024/01/11 01:24:24;;;;;;;235.20;96.40;;;;;;;-9.87;79.90;100003.52;226226;1267;22566;-70
2024/01/11 01:29:27;;;;;;;247.10;95.50;;;;;;;-9.91;79.60;99997.13;226213;1272;22603;-69
2024/01/11 01:34:29;;;;;;;241.70;94.10;;;;;;;-9.92;79.61;99998.69;226239;1274;22611;-72
2024/01/11 01:39:31;;;;;;;216.40;90.00;;;;;;;-9.89;79.90;99990.78;226150;1273;22592;-71
2024/01/11 01:44:34;;;;;;;214.00;87.60;;;;;;;-9.85;80.13;99992.08;226256;1273;22581;-70
2024/01/11 01:49:37;;;;;;;235.20;93.10;;;;;;;-9.84;79.88;99988.65;226236;1272;22570;-69
2024/01/11 01:54:40;;;;;;;203.50;79.70;;;;;;;-9.86;80.05;99984.45;226231;1270;22773;-70
2024/01/11 01:59:43;;;;;;;186.60;77.10;;;;;;;-9.93;79.66;99975.38;226237;1273;23344;-70
2024/01/11 02:04:46;;;;;;;169.90;67.00;;;;;;;-9.95;79.99;99981.23;226310;1274;22613;-70
2024/01/11 02:09:48;;;;;;;171.20;67.00;;;;;;;-9.95;80.01;99981.55;226306;1274;22624;-70
2024/01/11 02:14:51;;;;;;;184.10;69.20;;;;;;;-9.94;80.32;99974.19;226272;1273;22576;-70
2024/01/11 02:19:53;;;;;;;191.90;80.20;;;;;;;-9.92;80.10;99974.33;226188;1274;24310;-70
2024/01/11 02:24:57;;;;;;;167.70;69.10;;;;;;;-9.92;80.26;99963.74;226228;1272;24411;-71
2024/01/11 02:29:59;;;;;;;192.90;79.20;;;;;;;-9.92;80.21;99961.36;226295;1273;22694;-69
2024/01/11 02:35:01;;;;;;;182.60;75.80;;;;;;;-9.94;80.24;99962.60;226237;1257;22593;-71
2024/01/11 02:40:04;;;;;;;194.70;84.70;;;;;;;-9.93;80.24;99956.45;226231;1251;24235;-71
2024/01/11 02:56:09;;;;;;;167.90;71.00;;;;;;;-9.94;80.24;99962.44;226302;1254;22608;-70
2024/01/11 03:01:11;;;;;;;152.00;67.20;;;;;;;-9.95;80.31;99967.92;226220;1273;22718;-71
2024/01/11 03:06:13;;;;;;;155.50;66.00;;;;;;;-9.94;80.34;99978.46;226157;1273;24949;-71
2024/01/11 03:11:18;;;;;;;159.60;66.90;;;;;;;-9.95;80.38;99972.85;226265;1272;22671;-71
2024/01/11 03:16:20;;;;;;;140.60;60.40;;;;;;;-10.03;80.23;99962.63;226275;1270;22592;-71
2024/01/11 03:21:23;;;;;;;132.60;56.00;;;;;;;-10.11;80.27;99946.42;226267;1273;22579;-71
2024/01/11 03:26:25;;;;;;;166.50;69.90;;;;;;;-10.21;80.19;99946.83;226273;1270;22390;-71
2024/01/11 03:31:27;;;;;;;164.40;69.70;;;;;;;-10.31;80.22;99941.93;226248;1263;22628;-71
2024/01/11 03:36:29;;;;;;;155.60;62.20;;;;;;;-10.38;80.24;99925.38;226071;1270;22566;-70
2024/01/11 03:41:31;;;;;;;181.20;71.30;;;;;;;-10.46;80.06;99916.52;225946;1273;360137;-70
2024/01/11 03:46:33;;;;;;;187.80;77.50;;;;;;;-10.59;79.76;99915.23;226369;1254;22519;-70
2024/01/11 03:51:36;;;;;;;177.80;66.80;;;;;;;-10.70;80.01;99912.36;226239;1270;22749;-69
2024/01/11 03:56:39;;;;;;;184.20;75.40;;;;;;;-10.71;80.32;99920.23;226244;1272;22545;-70
2024/01/11 04:01:41;;;;;;;174.50;73.80;;;;;;;-10.66;80.65;99939.88;226372;1273;22547;-69
2024/01/11 04:06:44;;;;;;;184.30;70.60;;;;;;;-10.58;80.95;99938.54;226242;1269;22574;-71
2024/01/11 04:11:47;;;;;;;218.70;87.70;;;;;;;-10.54;80.84;99938.30;226317;1272;25402;-70
2024/01/11 04:16:49;;;;;;;185.00;77.50;;;;;;;-10.56;80.74;99939.52;226234;1272;22556;-71
2024/01/11 04:21:51;;;;;;;177.70;75.10;;;;;;;-10.61;80.54;99924.96;226286;1272;22556;-70
2024/01/11 04:26:53;;;;;;;168.10;66.70;;;;;;;-10.57;80.75;99923.03;226288;1272;22594;-70
2024/01/11 04:31:55;;;;;;;141.60;58.90;;;;;;;-10.54;80.83;99916.33;226259;1269;23031;-70
2024/01/11 04:36:57;;;;;;;159.90;68.10;;;;;;;-10.54;80.88;99912.60;226314;1273;22528;-69
2024/01/11 04:42:00;;;;;;;160.90;69.30;;;;;;;-10.54;80.76;99927.05;226266;1269;22687;-69
2024/01/11 04:47:02;;;;;;;165.00;70.60;;;;;;;-10.50;80.97;99930.19;226262;1273;22529;-70
2024/01/11 04:52:04;;;;;;;164.80;68.10;;;;;;;-10.48;81.02;99915.35;226245;1272;24256;-72
2024/01/11 04:57:07;;;;;;;158.30;64.10;;;;;;;-10.50;80.73;99913.17;226301;1273;22659;-70
2024/01/11 05:02:09;;;;;;;152.50;67.10;;;;;;;-10.47;80.97;99911.26;226291;1270;22492;-72
2024/01/11 05:07:11;;;;;;;147.70;60.30;;;;;;;-10.46;80.89;99921.45;226246;1253;22214;-71
2024/01/11 05:12:13;;;;;;;144.90;59.20;;;;;;;-10.46;80.70;99917.03;226295;1268;22962;-71
2024/01/11 05:17:14;;;;;;;152.60;65.90;;;;;;;-10.51;80.49;99901.80;226244;1268;22527;-70
2024/01/11 05:22:17;;;;;;;133.60;53.20;;;;;;;-10.56;80.44;99896.80;226237;1269;22622;-71
2024/01/11 05:27:19;;;;;;;153.30;65.40;;;;;;;-10.64;80.24;99888.25;226209;1272;25406;-70
2024/01/11 05:32:21;;;;;;;130.90;52.90;;;;;;;-10.70;80.24;99871.02;226265;1270;22958;-70
2024/01/11 05:37:23;;;;;;;147.90;60.30;;;;;;;-10.75;80.38;99869.59;226252;1273;22567;-69
2024/01/11 05:42:25;;;;;;;136.40;59.20;;;;;;;-10.74;80.47;99893.22;226286;1253;21748;-72
2024/01/11 05:47:28;;;;;;;123.30;52.80;;;;;;;-10.67;80.89;99874.88;226284;1273;23667;-70
2024/01/11 05:52:30;;;;;;;116.90;49.80;;;;;;;-10.64;80.67;99875.16;226257;1270;22538;-70
2024/01/11 05:57:32;;;;;;;112.60;47.30;;;;;;;-10.67;80.49;99875.71;226250;1270;22568;-70
2024/01/11 06:02:36;;;;;;;108.90;45.40;;;;;;;-10.68;80.38;99857.54;226258;1271;22600;-71
2024/01/11 06:07:38;;;;;;;125.90;53.10;;;;;;;-10.71;80.30;99849.61;226277;1273;21767;-70
2024/01/11 06:12:41;;;;;;;122.90;52.10;;;;;;;-10.73;80.52;99853.55;226265;1272;22552;-69
2024/01/11 06:17:42;;;;;;;123.00;50.10;;;;;;;-10.69;80.58;99854.66;226260;1272;22570;-71
2024/01/11 06:22:45;;;;;;;113.60;49.40;;;;;;;-10.62;80.80;99864.23;226280;1270;22549;-70
2024/01/11 06:27:47;;;;;;;107.90;46.00;;;;;;;-10.57;80.85;99858.02;226288;1270;22344;-72
2024/01/11 06:32:49;;;;;;;107.10;44.80;;;;;;;-10.53;80.77;99854.17;226275;1272;22529;-70
2024/01/11 06:37:51;;;;;;;125.60;55.90;;;;;;;-10.52;80.66;99839.84;226147;1273;22529;-70
2024/01/11 06:42:53;;;;;;;121.20;52.90;;;;;;;-10.50;80.60;99831.48;226279;1271;25364;-70
2024/01/11 06:47:56;;;;;;;114.20;50.70;;;;;;;-10.44;80.74;99828.46;226329;1253;22621;-71
2024/01/11 06:53:00;;;;;;;126.80;52.50;;;;;;;-10.36;80.95;99808.89;226241;1250;22502;-72
2024/01/11 06:58:02;;;;;;;96.20;45.70;;;;;;;-10.26;81.14;99796.40;226129;1269;25238;-72
2024/01/11 07:03:05;;;;;;;117.60;50.30;;;;;;;-10.12;81.22;99780.57;226281;1266;22521;-74
2024/01/11 07:08:07;;;;;;;116.20;50.40;;;;;;;-10.00;81.38;99782.52;226341;1259;28313;-72
2024/01/11 07:13:11;;;;;;;120.60;55.30;;;;;;;-9.87;81.23;99784.92;226335;1266;22567;-72
2024/01/11 07:18:13;;;;;;;122.90;54.20;;;;;;;-9.76;81.07;99776.48;226150;1260;22740;-71
2024/01/11 07:23:15;;;;;;;123.90;54.10;;;;;;;-9.66;81.04;99759.02;226116;1262;24257;-71
2024/01/11 07:28:17;;;;;;;137.30;59.40;;;;;;;-9.55;81.04;99754.66;225415;1257;23450;-71
2024/01/11 07:33:20;;;;;;;107.90;50.00;;;;;;;-9.36;81.15;99756.54;225403;1259;22826;-72
2024/01/11 07:38:23;;;;;;;102.00;47.00;;;;;;;-9.00;81.45;99757.45;225130;1265;21817;-70
2024/01/11 07:43:26;;;;;;;94.50;48.10;;;;;;;-8.55;81.91;99776.65;225282;1267;22562;-71
2024/01/11 07:48:38;;;;;;;98.90;47.70;;;;;;;-8.05;81.87;99778.02;225356;1250;22559;-71
2024/01/11 07:53:41;;;;;;;89.40;39.60;;;;;;;-7.67;81.23;99769.76;225325;1267;22708;-70
2024/01/11 07:58:43;;;;;;;97.00;43.30;;;;;;;-7.34;80.66;99748.48;225466;1266;22670;-70
2024/01/11 08:03:47;;;;;;;92.50;43.10;;;;;;;-6.85;80.39;99734.40;225312;1256;22652;-70
2024/01/11 08:08:51;;;;;;;96.40;47.20;;;;;;;-6.50;79.88;99712.38;225270;1260;24247;-70
2024/01/11 08:13:54;;;;;;;87.80;43.60;;;;;;;-6.20;79.52;99705.73;225358;1254;22594;-71
2024/01/11 08:18:56;;;;;;;98.60;47.90;;;;;;;-5.98;79.41;99695.40;225547;1266;22553;-72
2024/01/11 08:23:58;;;;;;;97.20;47.70;;;;;;;-5.77;79.01;99692.28;226199;1266;24214;-72
2024/01/11 08:29:04;;;;;;;93.00;44.70;;;;;;;-5.48;79.27;99689.34;226229;1251;22873;-72
2024/01/11 08:34:07;;;;;;;90.20;43.90;;;;;;;-5.18;79.38;99683.23;226134;1250;22614;-72
2024/01/11 08:39:11;;;;;;;85.50;43.30;;;;;;;-4.89;79.26;99674.55;226185;1254;22999;-71
2024/01/11 08:44:13;;;;;;;90.90;44.80;;;;;;;-4.66;79.09;99662.31;226176;1251;22540;-70
2024/01/11 08:49:15;;;;;;;93.90;43.80;;;;;;;-4.45;79.00;99663.90;226090;1250;25222;-70
2024/01/11 08:54:20;;;;;;;75.80;40.40;;;;;;;-4.30;78.39;99682.61;225902;1263;25627;-70
2024/01/11 08:59:24;;;;;;;75.90;37.90;;;;;;;-4.04;78.59;99705.60;225984;1256;22570;-70
2024/01/11 09:04:29;;;;;;;76.40;35.80;;;;;;;-3.62;78.71;99711.66;226148;1250;24352;-70
2024/01/11 09:09:32;;;;;;;68.70;35.90;;;;;;;-3.17;78.38;99724.50;225996;1266;22551;-70
2024/01/11 09:14:42;;;;;;;63.20;32.50;;;;;;;-2.85;77.55;99715.41;225965;1260;23126;-71
2024/01/11 09:19:44;;;;;;;59.90;30.20;;;;;;;-2.73;76.28;99713.44;225883;1262;23297;-72
2024/01/11 09:24:46;;;;;;;60.60;31.30;;;;;;;-2.67;76.00;99712.71;226216;1251;25291;-72
2024/01/11 09:29:48;;;;;;;57.90;28.80;;;;;;;-2.46;76.05;99710.24;225959;1266;24603;-73
2024/01/11 09:34:55;;;;;;;51.60;27.70;;;;;;;-2.31;75.73;99710.25;226031;1257;23091;-73
2024/01/11 09:39:57;;;;;;;62.60;30.90;;;;;;;-2.20;75.55;99695.83;226174;1266;22580;-74
2024/01/11 09:45:01;;;;;;;63.90;31.20;;;;;;;-2.12;75.18;99695.96;226159;1254;23047;-74
2024/01/11 09:50:06;;;;;;;73.40;38.20;;;;;;;-1.99;75.15;99692.77;225779;1256;22559;-73
2024/01/11 09:55:08;;;;;;;69.20;36.50;;;;;;;-1.92;74.48;99670.58;226468;1260;22567;-72
2024/01/11 10:00:13;;;;;;;74.00;37.70;;;;;;;-1.96;74.25;99668.95;226133;1257;23348;-72
2024/01/11 10:05:17;;;;;;;86.20;41.40;;;;;;;-1.99;73.93;99659.43;226343;1257;22693;-72
2024/01/11 10:10:19;;;;;;;84.80;42.50;;;;;;;-1.92;74.46;99651.10;226054;1266;22653;-72
2024/01/11 10:15:24;;;;;;;92.50;45.30;;;;;;;-1.92;74.11;99650.91;226134;1266;22543;-71
2024/01/11 10:20:29;;;;;;;84.10;43.90;;;;;;;-1.90;74.20;99640.98;226229;1266;22555;-72
2024/01/11 10:25:32;;;;;;;87.80;44.30;;;;;;;-1.83;74.06;99626.45;226094;1249;22560;-74
2024/01/11 10:30:35;;;;;;;80.90;40.70;;;;;;;-1.83;73.95;99627.98;226142;1269;22875;-76
2024/01/11 10:35:38;;;;;;;87.70;44.60;;;;;;;-1.83;73.72;99623.45;226146;1265;23087;-75
2024/01/11 10:40:41;;;;;;;88.40;43.10;;;;;;;-1.76;73.60;99621.19;226061;1265;22554;-74
2024/01/11 10:45:44;;;;;;;89.50;44.80;;;;;;;-1.67;73.76;99613.93;226109;1260;22547;-75
2024/01/11 10:50:54;;;;;;;92.00;45.80;;;;;;;-1.57;73.50;99592.25;225888;1263;22735;-74
2024/01/11 10:55:59;;;;;;;80.00;39.70;;;;;;;-1.40;73.94;99590.69;226114;1266;22909;-74
2024/01/11 11:01:04;;;;;;;70.00;36.10;;;;;;;-1.25;73.76;99585.64;226050;1267;22554;-74
2024/01/11 11:06:07;;;;;;;61.60;32.90;;;;;;;-1.08;73.70;99573.02;226012;1263;24304;-75
2024/01/11 11:11:09;;;;;;;55.60;30.90;;;;;;;-0.85;73.86;99564.09;225885;1266;24281;-75
2024/01/11 11:16:15;;;;;;;60.60;30.90;;;;;;;-0.70;72.69;99554.67;225910;1263;25542;-75
2024/01/11 11:21:17;;;;;;;52.10;26.90;;;;;;;-0.63;72.30;99553.23;226065;1256;22607;-75
2024/01/11 11:26:19;;;;;;;52.00;27.30;;;;;;;-0.56;72.04;99547.22;226029;1265;22650;-76
2024/01/11 11:31:41;;;;;;;55.80;27.70;;;;;;;-0.58;71.50;99539.52;226033;1257;22584;-76
2024/01/11 11:36:46;;;;;;;49.00;26.20;;;;;;;-0.50;71.48;99530.55;226095;1263;23101;-77
2024/01/11 11:41:49;;;;;;;42.40;23.40;;;;;;;-0.30;71.84;99518.86;226086;1266;24409;-77
2024/01/11 11:46:51;;;;;;;41.90;21.30;;;;;;;-0.05;71.56;99517.48;226072;1250;25052;-76
2024/01/11 11:51:55;;;;;;;37.60;21.70;;;;;;;0.12;71.18;99509.92;225986;1253;22545;-76
2024/01/11 11:56:59;;;;;;;31.40;17.60;;;;;;;0.21;70.74;99496.48;225957;1271;22669;-74
2024/01/11 12:02:01;;;;;;;28.00;15.40;;;;;;;0.30;70.78;99492.21;225978;1266;25420;-76
2024/01/11 12:07:04;;;;;;;25.40;13.60;;;;;;;0.32;69.73;99495.57;225838;1260;22544;-77
2024/01/11 12:12:06;;;;;;;28.90;15.10;;;;;;;0.22;68.50;99496.63;226054;1254;22543;-76
2024/01/11 12:17:17;;;;;;;29.40;16.40;;;;;;;0.12;68.35;99496.64;225818;1263;26322;-78
2024/01/11 12:22:19;;;;;;;29.80;16.10;;;;;;;0.05;68.07;99495.52;226009;1263;25466;-78
2024/01/11 12:27:21;;;;;;;32.30;17.30;;;;;;;-0.04;67.87;99488.21;226053;1263;22633;-77
2024/01/11 12:32:23;;;;;;;35.10;18.40;;;;;;;-0.11;68.14;99486.08;226028;1266;22557;-78
2024/01/11 12:37:26;;;;;;;30.60;17.60;;;;;;;-0.18;67.97;99482.58;226082;1266;23056;-77
2024/01/11 12:42:28;;;;;;;40.30;20.10;;;;;;;-0.22;68.16;99479.05;226055;1267;25514;-76
2024/01/11 12:47:31;;;;;;;41.40;20.90;;;;;;;-0.30;68.36;99474.20;225922;1264;22643;-77
2024/01/11 12:52:33;;;;;;;39.90;21.90;;;;;;;-0.37;68.17;99464.77;225976;1266;22572;-77
2024/01/11 12:57:49;;;;;;;42.70;22.50;;;;;;;-0.41;68.68;99460.19;226061;1251;22579;-77
2024/01/11 13:02:53;;;;;;;39.60;21.60;;;;;;;-0.39;68.63;99460.77;226111;1257;22551;-77
2024/01/11 13:07:56;;;;;;;45.10;22.70;;;;;;;-0.42;68.71;99442.30;226177;1267;22737;-77
2024/01/11 13:12:59;;;;;;;43.90;22.70;;;;;;;-0.43;68.78;99434.38;226246;1263;22601;-76
2024/01/11 13:18:09;;;;;;;41.90;21.20;;;;;;;-0.42;68.81;99426.71;226129;1260;25749;-76
2024/01/11 13:23:13;;;;;;;42.30;21.30;;;;;;;-0.48;68.68;99423.13;226154;1260;25120;-76
2024/01/11 13:28:16;;;;;;;41.50;22.30;;;;;;;-0.53;69.09;99417.41;226174;1266;22550;-77
2024/01/11 13:33:19;;;;;;;42.50;22.40;;;;;;;-0.55;68.90;99408.40;225997;1257;22593;-76
2024/01/11 13:38:21;;;;;;;43.50;23.40;;;;;;;-0.61;68.82;99413.46;225993;1266;22540;-76
2024/01/11 13:43:26;;;;;;;38.50;21.20;;;;;;;-0.69;68.93;99420.38;226184;1266;22601;-76
2024/01/11 13:48:28;;;;;;;44.10;22.10;;;;;;;-0.77;69.00;99417.66;226093;1267;22640;-76
2024/01/11 13:53:30;;;;;;;47.40;22.80;;;;;;;-0.85;69.08;99421.24;226236;1266;22535;-79
2024/01/11 13:58:33;;;;;;;41.10;22.70;;;;;;;-0.91;69.15;99430.82;226103;1260;22548;-75
2024/01/11 14:03:35;;;;;;;42.80;22.30;;;;;;;-0.95;69.36;99428.36;226127;1266;22555;-75
2024/01/11 14:08:38;;;;;;;41.20;23.10;;;;;;;-1.00;69.53;99423.27;226051;1266;23033;-76
2024/01/11 14:13:40;;;;;;;41.60;22.00;;;;;;;-1.04;69.51;99421.18;226109;1269;22606;-76
2024/01/11 14:18:42;;;;;;;42.30;20.80;;;;;;;-1.08;69.81;99415.86;226047;1254;22547;-76
2024/01/11 14:23:44;;;;;;;37.30;19.20;;;;;;;-1.10;70.05;99412.35;226221;1269;23794;-77
2024/01/11 14:28:46;;;;;;;34.30;19.50;;;;;;;-1.14;70.09;99422.98;226165;1267;22559;-77
2024/01/11 14:33:49;;;;;;;31.20;16.90;;;;;;;-1.21;70.02;99426.24;226048;1270;26075;-81
2024/01/11 14:38:52;;;;;;;30.80;16.10;;;;;;;-1.31;69.87;99435.52;225859;1264;23540;-84
2024/01/11 14:43:54;;;;;;;34.50;16.60;;;;;;;-1.40;70.26;99441.94;225839;1259;23311;-81
2024/01/11 14:48:56;;;;;;;27.70;15.70;;;;;;;-1.48;70.40;99450.20;225716;1269;22583;-79
2024/01/11 14:53:59;;;;;;;28.30;15.00;;;;;;;-1.51;70.81;99464.06;225935;1266;28248;-77
2024/01/11 14:59:03;;;;;;;24.50;14.00;;;;;;;-1.55;71.16;99472.95;225933;1261;22551;-79
2024/01/11 15:04:05;;;;;;;26.70;14.70;;;;;;;-1.60;71.38;99479.45;226005;1257;23058;-78
2024/01/11 15:09:12;;;;;;;26.20;13.80;;;;;;;-1.62;71.87;99476.98;225913;1272;22609;-78
2024/01/11 15:14:14;;;;;;;27.80;14.60;;;;;;;-1.62;72.22;99482.55;225916;1273;25317;-78
2024/01/11 15:19:16;;;;;;;26.50;15.00;;;;;;;-1.66;72.30;99482.96;226069;1269;22617;-77
2024/01/11 15:24:18;;;;;;;28.30;16.00;;;;;;;-1.70;72.51;99485.64;226106;1273;22554;-78
2024/01/11 15:29:22;;;;;;;27.20;16.70;;;;;;;-1.76;72.85;99497.58;226129;1272;22556;-78
2024/01/11 15:34:24;;;;;;;30.80;17.10;;;;;;;-1.91;72.98;99498.64;226002;1272;24225;-78
2024/01/11 15:39:26;;;;;;;29.50;16.10;;;;;;;-2.03;73.68;99501.95;226234;1269;24288;-78
2024/01/11 15:44:34;;;;;;;33.40;19.10;;;;;;;-2.15;74.15;99496.42;226209;1273;176093;-78
2024/01/11 15:49:37;;;;;;;33.90;19.20;;;;;;;-2.27;74.77;99498.73;226252;1270;24208;-77
2024/01/11 15:54:40;;;;;;;40.20;20.60;;;;;;;-2.36;75.52;99500.80;226345;1272;22539;-77
2024/01/11 15:59:42;;;;;;;38.80;20.30;;;;;;;-2.43;75.96;99497.05;226363;1272;25406;-77
2024/01/11 16:04:45;;;;;;;37.10;20.80;;;;;;;-2.52;76.20;99498.95;226311;1272;22547;-77
2024/01/11 16:09:49;;;;;;;35.40;20.30;;;;;;;-2.58;76.53;99493.77;226407;1270;22754;-77
2024/01/11 16:14:53;;;;;;;39.00;21.20;;;;;;;-2.60;76.79;99502.01;226417;1271;22535;-76
2024/01/11 16:19:55;;;;;;;39.00;22.40;;;;;;;-2.62;77.03;99509.85;226343;1272;22732;-76
2024/01/11 16:24:58;;;;;;;35.10;20.70;;;;;;;-2.65;77.07;99513.14;226303;1272;23217;-76
2024/01/11 16:30:00;;;;;;;45.70;24.00;;;;;;;-2.67;77.18;99514.16;226406;1272;23370;-75
2024/01/11 16:35:05;;;;;;;39.60;23.00;;;;;;;-2.70;77.25;99509.69;226342;1272;23039;-74
2024/01/11 16:40:11;;;;;;;38.60;20.90;;;;;;;-2.74;77.44;99518.30;226347;1272;22539;-74
2024/01/11 16:45:13;;;;;;;36.80;20.50;;;;;;;-2.77;77.57;99526.73;226352;1272;22598;-74
2024/01/11 16:50:16;;;;;;;37.60;20.60;;;;;;;-2.79;77.63;99538.95;226374;1269;22671;-74
2024/01/11 16:55:18;;;;;;;40.60;23.10;;;;;;;-2.82;77.78;99548.44;226357;1272;23142;-74
2024/01/11 17:00:21;;;;;;;44.90;21.20;;;;;;;-2.85;78.00;99549.27;226340;1273;25465;-74
2024/01/11 17:05:23;;;;;;;39.80;22.30;;;;;;;-2.87;78.19;99549.73;226337;1269;23138;-74
2024/01/11 17:10:26;;;;;;;39.30;20.00;;;;;;;-2.90;78.34;99557.66;226327;1272;23141;-74
2024/01/11 17:15:28;;;;;;;37.90;21.10;;;;;;;-2.92;78.68;99550.86;226260;1272;22589;-73
2024/01/11 17:20:30;;;;;;;38.70;21.30;;;;;;;-2.93;78.65;99538.52;226323;1272;22629;-73
2024/01/11 17:25:32;;;;;;;41.00;23.30;;;;;;;-2.94;78.88;99536.47;226401;1272;22591;-73
2024/01/11 17:30:34;;;;;;;47.40;25.00;;;;;;;-2.93;78.87;99551.80;226389;1270;22608;-73
2024/01/11 17:35:36;;;;;;;43.30;23.50;;;;;;;-2.95;79.24;99559.27;226327;1270;22687;-74
2024/01/11 17:40:39;;;;;;;46.20;24.20;;;;;;;-2.97;79.35;99556.52;226404;1272;22692;-74
2024/01/11 17:45:43;;;;;;;42.50;23.50;;;;;;;-2.99;79.73;99560.06;226270;1272;22600;-74
2024/01/11 17:50:45;;;;;;;46.40;25.10;;;;;;;-3.04;79.82;99552.95;226321;1272;23150;-74
2024/01/11 17:55:47;;;;;;;42.40;23.90;;;;;;;-3.08;80.03;99546.91;226439;1272;24281;-73
2024/01/11 18:00:49;;;;;;;42.60;23.20;;;;;;;-3.10;80.12;99545.98;226261;1272;23066;-73
2024/01/11 18:05:51;;;;;;;45.90;25.90;;;;;;;-3.11;80.31;99544.33;226402;1269;22629;-73
2024/01/11 18:10:53;;;;;;;49.90;27.20;;;;;;;-3.13;80.51;99546.86;226340;1273;24489;-73
2024/01/11 18:15:55;;;;;;;44.10;25.80;;;;;;;-3.16;80.94;99547.02;226383;1272;22633;-73
2024/01/11 18:20:57;;;;;;;45.00;24.70;;;;;;;-3.18;80.84;99544.89;226375;1262;22626;-73
2024/01/11 18:25:59;;;;;;;46.50;24.70;;;;;;;-3.19;80.94;99542.21;226260;1272;22598;-73
2024/01/11 18:31:01;;;;;;;42.20;25.00;;;;;;;-3.22;81.42;99544.93;226271;1273;22570;-73
2024/01/11 18:36:04;;;;;;;47.70;28.50;;;;;;;-3.27;81.21;99543.13;226351;1272;24432;-73
2024/01/11 18:41:06;;;;;;;47.30;26.50;;;;;;;-3.26;81.48;99542.23;226438;1272;22833;-73
2024/01/11 18:46:09;;;;;;;48.50;27.60;;;;;;;-3.27;81.86;99542.12;226308;1272;22759;-73
2024/01/11 18:51:11;;;;;;;47.90;24.40;;;;;;;-3.27;81.79;99547.11;226383;1272;22570;-73
2024/01/11 18:56:17;;;;;;;44.00;24.50;;;;;;;-3.25;82.12;99549.23;226363;1273;24231;-73
2024/01/11 19:01:25;;;;;;;49.70;26.10;;;;;;;-3.26;82.17;99543.10;226343;1272;25086;-73
2024/01/11 19:06:29;;;;;;;52.80;26.30;;;;;;;-3.27;82.32;99538.14;226407;1272;22596;-73
2024/01/11 19:11:31;;;;;;;44.90;25.90;;;;;;;-3.25;82.66;99542.67;226408;1272;22679;-73
2024/01/11 19:16:36;;;;;;;44.30;24.80;;;;;;;-3.24;82.84;99536.41;226319;1272;24249;-73
2024/01/11 19:21:40;;;;;;;39.30;22.80;;;;;;;-3.25;82.92;99536.98;226364;1273;22566;-73
2024/01/11 19:26:47;;;;;;;38.80;19.30;;;;;;;-3.26;83.29;99542.59;226382;1272;22516;-72
2024/01/11 19:31:52;;;;;;;33.20;18.70;;;;;;;-3.28;83.69;99541.83;226306;1260;22536;-72
2024/01/11 19:36:54;;;;;;;35.50;19.40;;;;;;;-3.28;83.55;99532.71;226382;1272;23095;-73
2024/01/11 19:41:57;;;;;;;32.70;18.60;;;;;;;-3.29;83.63;99532.55;226406;1272;25480;-73
2024/01/11 19:47:00;;;;;;;32.00;19.20;;;;;;;-3.27;83.70;99534.52;226384;1252;22789;-73
2024/01/11 19:52:02;;;;;;;35.00;19.60;;;;;;;-3.25;83.98;99535.95;226361;1273;22612;-73
2024/01/11 19:57:05;;;;;;;35.20;20.50;;;;;;;-3.23;83.85;99535.65;226396;1273;22637;-73
2024/01/11 20:02:07;;;;;;;37.60;20.90;;;;;;;-3.20;83.99;99541.89;226312;1273;22670;-72
2024/01/11 20:07:09;;;;;;;40.90;22.50;;;;;;;-3.21;83.93;99535.02;226449;1273;23192;-73
2024/01/11 20:12:11;;;;;;;34.40;19.70;;;;;;;-3.20;83.97;99536.36;226329;1271;22588;-72
2024/01/11 20:17:15;;;;;;;38.00;20.20;;;;;;;-3.18;83.85;99532.30;226344;1272;22567;-72
2024/01/11 20:22:18;;;;;;;31.60;18.30;;;;;;;-3.18;83.93;99541.83;226406;1273;22571;-72
2024/01/11 20:27:22;;;;;;;30.70;17.70;;;;;;;-3.17;83.93;99550.22;226432;1270;22831;-73
2024/01/11 20:32:24;;;;;;;33.90;18.20;;;;;;;-3.17;84.16;99555.68;226483;1267;22855;-73
2024/01/11 20:37:26;;;;;;;30.00;16.60;;;;;;;-3.16;84.18;99562.04;226248;1272;22677;-73
2024/01/11 20:42:30;;;;;;;29.20;17.30;;;;;;;-3.16;84.02;99556.35;226305;1273;22578;-73
2024/01/11 20:47:33;;;;;;;32.30;16.30;;;;;;;-3.17;84.37;99555.86;226404;1273;22628;-73
2024/01/11 20:52:35;;;;;;;29.30;15.50;;;;;;;-3.16;84.50;99561.69;226134;1273;22559;-73
2024/01/11 20:57:38;;;;;;;33.60;19.30;;;;;;;-3.14;84.33;99562.94;226249;1254;22599;-73
2024/01/11 21:02:44;;;;;;;33.00;19.10;;;;;;;-3.12;84.36;99561.66;226376;1273;22580;-72
2024/01/11 21:07:47;;;;;;;33.90;18.60;;;;;;;-3.12;84.52;99574.89;226430;1267;22578;-72
2024/01/11 21:12:49;;;;;;;38.70;20.70;;;;;;;-3.12;84.46;99586.13;226393;1269;25051;-73
2024/01/11 21:17:51;;;;;;;37.90;21.80;;;;;;;-3.13;84.45;99594.09;226343;1272;22602;-74
2024/01/11 21:22:55;;;;;;;39.30;20.90;;;;;;;-3.14;84.75;99604.65;226392;1270;22755;-73
2024/01/11 21:27:58;;;;;;;35.80;19.60;;;;;;;-3.16;84.97;99612.67;226388;1267;22717;-73
2024/01/11 21:33:03;;;;;;;35.20;19.80;;;;;;;-3.16;84.98;99619.07;226397;1273;22666;-73
2024/01/11 21:38:06;;;;;;;36.40;19.70;;;;;;;-3.17;85.00;99610.98;226355;1270;22652;-72
2024/01/11 21:43:08;;;;;;;37.10;20.50;;;;;;;-3.17;85.02;99615.66;226407;1271;22590;-73
2024/01/11 21:48:10;;;;;;;35.60;20.80;;;;;;;-3.15;85.03;99617.80;226367;1272;22639;-73
2024/01/11 21:53:13;;;;;;;36.20;19.70;;;;;;;-3.15;85.36;99617.09;226464;1267;22603;-73
2024/01/11 21:58:18;;;;;;;35.80;20.40;;;;;;;-3.15;85.34;99618.48;226424;1272;22625;-73
2024/01/11 22:03:20;;;;;;;36.30;20.00;;;;;;;-3.17;85.26;99616.33;226406;1269;23896;-72
2024/01/11 22:08:23;;;;;;;40.00;22.40;;;;;;;-3.17;85.33;99609.61;226402;1272;22597;-72
2024/01/11 22:13:25;;;;;;;39.70;21.40;;;;;;;-3.17;85.62;99614.11;226426;1270;22716;-72
2024/01/11 22:18:27;;;;;;;38.60;22.30;;;;;;;-3.18;85.29;99616.39;226349;1273;22627;-72
2024/01/11 22:23:29;;;;;;;37.00;20.90;;;;;;;-3.18;85.60;99619.83;226374;1266;22565;-73
2024/01/11 22:28:32;;;;;;;36.50;21.40;;;;;;;-3.15;85.50;99618.33;226382;1272;22578;-73
2024/01/11 22:33:33;;;;;;;35.40;21.00;;;;;;;-3.15;85.62;99613.12;226418;1270;25190;-73
2024/01/11 22:38:37;;;;;;;29.50;19.00;;;;;;;-3.13;85.46;99619.23;226455;1272;22574;-72
2024/01/11 22:43:39;;;;;;;32.90;19.60;;;;;;;-3.11;85.56;99612.20;226400;1272;22605;-73
2024/01/11 22:48:41;;;;;;;31.00;18.90;;;;;;;-3.09;85.58;99620.74;226287;1273;23164;-72
2024/01/11 22:53:44;;;;;;;31.50;18.10;;;;;;;-3.07;85.45;99618.21;226474;1270;22598;-72
2024/01/11 22:58:46;;;;;;;31.70;19.20;;;;;;;-3.04;85.75;99613.23;226394;1269;23706;-72